createdAt,value
2018-08-07T00:03:20.764Z,13.50
2018-08-07T00:05:22.965Z,13.50
2018-08-07T00:07:25.111Z,13.60
2018-08-07T00:09:27.277Z,12.50
2018-08-07T00:11:29.443Z,12.50
2018-08-07T00:13:31.596Z,11.30
2018-08-07T00:15:33.801Z,13.50
2018-08-07T00:17:35.984Z,16.10
2018-08-07T00:19:38.178Z,13.90
2018-08-07T00:21:40.341Z,15.50
2018-08-07T00:23:42.614Z,13.10
2018-08-07T00:25:44.762Z,15.20
2018-08-07T00:27:47.069Z,12.30
2018-08-07T00:31:51.448Z,11.30
2018-08-07T00:33:53.602Z,9.30
2018-08-07T00:35:55.750Z,12.00
2018-08-07T00:37:57.871Z,11.00
2018-08-07T00:40:00.038Z,11.00
2018-08-07T00:42:02.228Z,6.80
2018-08-07T00:44:04.409Z,3.50
2018-08-07T00:46:06.497Z,3.50
2018-08-07T00:48:08.625Z,3.00
2018-08-07T00:50:13.777Z,2.70
2018-08-07T00:52:15.938Z,2.40
2018-08-07T00:54:18.173Z,1.30
2018-08-07T00:56:20.332Z,3.70
2018-08-07T00:58:22.638Z,2.10
2018-08-07T01:00:24.772Z,3.70
2018-08-07T01:02:26.849Z,2.60
2018-08-07T01:04:28.938Z,1.40
2018-08-07T01:06:31.014Z,2.40
2018-08-07T01:08:33.098Z,2.10
2018-08-07T01:10:35.188Z,3.70
2018-08-07T01:12:37.612Z,4.40
2018-08-07T01:14:39.701Z,6.70
2018-08-07T01:16:41.795Z,4.50
2018-08-07T01:18:43.882Z,6.50
2018-08-07T01:20:45.999Z,7.20
2018-08-07T01:22:48.083Z,6.80
2018-08-07T01:24:50.165Z,8.00
2018-08-07T01:26:52.277Z,8.00
2018-08-07T01:28:54.370Z,7.70
2018-08-07T01:30:56.452Z,7.80
2018-08-07T01:32:58.565Z,6.70
2018-08-07T01:35:00.687Z,7.80
2018-08-07T01:37:02.801Z,7.60
2018-08-07T01:39:07.116Z,6.80
2018-08-07T01:41:09.242Z,7.60
2018-08-07T01:43:11.330Z,7.80
2018-08-07T01:45:13.408Z,6.30
2018-08-07T01:47:15.490Z,6.90
2018-08-07T01:49:17.586Z,7.40
2018-08-07T01:51:19.678Z,8.90
2018-08-07T01:53:21.736Z,9.50
2018-08-07T01:55:25.511Z,8.30
2018-08-07T01:57:27.646Z,9.10
2018-08-07T01:59:29.766Z,9.80
2018-08-07T02:01:31.853Z,8.80
2018-08-07T02:03:33.932Z,8.90
2018-08-07T02:05:36.029Z,11.10
2018-08-07T02:07:38.194Z,10.90
2018-08-07T02:09:40.283Z,11.00
2018-08-07T02:11:42.369Z,11.40
2018-08-07T02:13:44.473Z,13.50
2018-08-07T02:15:46.575Z,11.80
2018-08-07T02:19:50.784Z,11.20
2018-08-07T02:21:52.859Z,11.40
2018-08-07T02:23:54.919Z,12.30
2018-08-07T02:25:57.005Z,12.70
2018-08-07T02:27:59.111Z,13.80
2018-08-07T02:30:01.224Z,11.70
2018-08-07T02:32:03.333Z,10.30
2018-08-07T02:34:05.418Z,10.90
2018-08-07T02:36:07.518Z,11.60
2018-08-07T02:38:09.584Z,13.00
2018-08-07T02:40:12.820Z,12.20
2018-08-07T02:42:14.919Z,10.80
2018-08-07T02:46:19.122Z,13.00
2018-08-07T02:48:21.173Z,11.30
2018-08-07T02:50:23.251Z,13.60
2018-08-07T02:52:25.309Z,13.60
2018-08-07T02:54:27.395Z,14.00
2018-08-07T02:56:29.466Z,12.70
2018-08-07T02:58:31.543Z,13.90
2018-08-07T03:00:35.450Z,13.10
2018-08-07T03:02:37.524Z,13.60
2018-08-07T03:04:40.013Z,12.30
2018-08-07T03:06:42.136Z,12.70
2018-08-07T03:08:44.197Z,12.80
2018-08-07T03:10:46.278Z,12.40
2018-08-07T03:12:48.346Z,11.60
2018-08-07T03:14:50.396Z,13.30
2018-08-07T03:16:52.458Z,11.90
2018-08-07T03:18:54.516Z,11.90
2018-08-07T03:20:56.559Z,11.80
2018-08-07T03:22:58.627Z,11.90
2018-08-07T03:25:00.711Z,11.50
2018-08-07T03:27:02.797Z,11.50
2018-08-07T03:29:04.867Z,12.90
2018-08-07T03:31:07.028Z,13.00
2018-08-07T03:33:09.090Z,12.50
2018-08-07T03:35:11.156Z,13.70
2018-08-07T03:37:13.213Z,15.60
2018-08-07T03:39:15.268Z,15.70
2018-08-07T03:41:17.338Z,16.30
2018-08-07T03:43:19.469Z,16.30
2018-08-07T03:45:21.589Z,16.80
2018-08-07T03:47:23.664Z,18.10
2018-08-07T03:49:25.865Z,17.80
2018-08-07T03:51:27.972Z,22.00
2018-08-07T03:53:30.044Z,23.00
2018-08-07T03:55:32.208Z,20.60
2018-08-07T03:57:34.590Z,19.70
2018-08-07T03:59:36.677Z,20.80
2018-08-07T04:01:38.744Z,19.60
2018-08-07T04:03:40.801Z,20.00
2018-08-07T04:05:42.874Z,18.80
2018-08-07T04:07:45.011Z,17.90
2018-08-07T04:09:47.083Z,18.00
2018-08-07T04:11:49.139Z,20.40
2018-08-07T04:13:51.216Z,20.70
2018-08-07T04:15:53.290Z,19.60
2018-08-07T04:17:55.344Z,21.40
2018-08-07T04:19:57.421Z,21.80
2018-08-07T04:21:59.485Z,19.70
2018-08-07T04:24:01.553Z,17.00
2018-08-07T04:26:03.670Z,17.30
2018-08-07T04:30:12.545Z,21.80
2018-08-07T04:32:14.669Z,24.50
2018-08-07T04:34:16.781Z,24.80
2018-08-07T04:36:18.841Z,27.00
2018-08-07T04:38:21.018Z,21.30
2018-08-07T04:40:23.157Z,20.60
2018-08-07T04:42:25.249Z,17.60
2018-08-07T04:44:27.337Z,19.30
2018-08-07T04:46:29.433Z,19.00
2018-08-07T04:48:31.513Z,19.80
2018-08-07T04:50:33.625Z,23.20
2018-08-07T04:52:36.341Z,19.20
2018-08-07T04:54:38.423Z,20.40
2018-08-07T04:56:40.480Z,20.60
2018-08-07T04:58:42.562Z,26.50
2018-08-07T05:00:44.628Z,22.90
2018-08-07T05:02:47.681Z,20.30
2018-08-07T05:04:49.804Z,18.80
2018-08-07T05:06:51.890Z,20.80
2018-08-07T05:08:53.950Z,22.60
2018-08-07T05:10:55.996Z,20.80
2018-08-07T05:12:58.061Z,18.20
2018-08-07T05:15:00.128Z,18.20
2018-08-07T05:17:02.201Z,19.30
2018-08-07T05:19:04.272Z,18.30
2018-08-07T05:21:06.366Z,19.40
2018-08-07T05:23:08.434Z,18.20
2018-08-07T05:25:11.185Z,18.60
2018-08-07T05:27:13.261Z,18.50
2018-08-07T05:29:15.338Z,18.30
2018-08-07T05:33:19.517Z,17.50
2018-08-07T05:35:21.566Z,17.40
2018-08-07T05:37:23.658Z,15.40
2018-08-07T05:39:25.766Z,15.90
2018-08-07T05:41:27.831Z,16.70
2018-08-07T05:43:29.969Z,16.10
2018-08-07T05:45:32.117Z,18.10
2018-08-07T05:47:34.220Z,18.50
2018-08-07T05:49:36.402Z,17.00
2018-08-07T05:51:38.478Z,13.70
2018-08-07T05:53:40.561Z,13.30
2018-08-07T05:55:42.637Z,12.90
2018-08-07T05:57:44.745Z,13.00
2018-08-07T05:59:46.812Z,17.30
2018-08-07T06:01:48.897Z,15.00
2018-08-07T06:03:50.976Z,13.10
2018-08-07T06:05:53.039Z,10.90
2018-08-07T06:07:55.660Z,11.70
2018-08-07T06:09:57.728Z,10.00
2018-08-07T06:11:59.782Z,10.90
2018-08-07T06:14:01.858Z,9.50
2018-08-07T06:16:03.912Z,9.60
2018-08-07T06:18:06.028Z,9.30
2018-08-07T06:20:09.297Z,8.80
2018-08-07T06:22:11.361Z,6.70
2018-08-07T06:24:13.418Z,6.80
2018-08-07T06:26:15.477Z,5.20
2018-08-07T06:28:17.596Z,4.40
2018-08-07T06:30:20.010Z,5.40
2018-08-07T06:32:22.078Z,4.50
2018-08-07T06:34:24.139Z,4.80
2018-08-07T06:36:26.192Z,3.80
2018-08-07T06:38:28.274Z,2.80
2018-08-07T06:40:30.336Z,8.10
2018-08-07T06:42:32.395Z,4.90
2018-08-07T06:44:34.478Z,1.50
2018-08-07T06:46:36.518Z,2.10
2018-08-07T06:48:38.601Z,2.30
2018-08-07T06:50:40.695Z,3.10
2018-08-07T06:52:43.519Z,1.80
2018-08-07T06:54:45.591Z,1.00
2018-08-07T06:56:47.632Z,2.20
2018-08-07T06:58:49.713Z,5.10
2018-08-07T07:00:51.768Z,1.00
2018-08-07T07:02:54.227Z,1.00
2018-08-07T07:04:56.301Z,1.90
2018-08-07T07:06:58.361Z,1.00
2018-08-07T07:09:00.433Z,1.00
2018-08-07T07:11:02.513Z,1.00
2018-08-07T07:13:04.613Z,1.00
2018-08-07T07:15:07.958Z,1.00
2018-08-07T07:17:10.042Z,1.00
2018-08-07T07:19:12.150Z,1.00
2018-08-07T07:21:14.282Z,1.00
2018-08-07T07:23:16.357Z,1.00
2018-08-07T07:25:18.446Z,1.00
2018-08-07T07:27:20.541Z,1.00
2018-08-07T07:29:22.617Z,1.00
2018-08-07T07:31:24.692Z,1.00
2018-08-07T07:33:26.798Z,1.00
2018-08-07T07:35:28.954Z,1.00
2018-08-07T07:37:31.030Z,1.00
2018-08-07T07:39:33.156Z,1.00
2018-08-07T07:41:35.350Z,1.00
2018-08-07T07:43:37.430Z,1.00
2018-08-07T07:45:40.371Z,1.00
2018-08-07T07:47:42.670Z,1.00
2018-08-07T07:49:44.750Z,1.00
2018-08-07T07:51:46.837Z,1.00
2018-08-07T07:53:48.905Z,1.00
2018-08-07T07:55:50.991Z,1.00
2018-08-07T07:57:53.081Z,1.00
2018-08-07T07:59:55.441Z,1.00
2018-08-07T08:01:57.569Z,1.00
2018-08-07T08:03:59.651Z,1.00
2018-08-07T08:06:01.759Z,1.00
2018-08-07T08:08:03.830Z,1.00
2018-08-07T08:10:07.505Z,1.00
2018-08-07T08:12:10.221Z,1.00
2018-08-07T08:14:12.304Z,1.00
2018-08-07T08:16:14.405Z,1.00
2018-08-07T08:18:16.541Z,1.00
2018-08-07T08:20:21.233Z,1.00
2018-08-07T08:22:23.662Z,1.00
2018-08-07T08:24:25.812Z,1.00
2018-08-07T08:26:30.173Z,1.00
2018-08-07T08:28:32.303Z,1.00
2018-08-07T08:30:34.430Z,1.00
2018-08-07T08:32:36.737Z,1.00
2018-08-07T08:34:38.857Z,1.00
2018-08-07T08:36:40.994Z,1.00
2018-08-07T08:38:43.147Z,1.00
2018-08-07T08:40:45.263Z,1.00
2018-08-07T08:42:47.390Z,1.00
2018-08-07T08:44:49.481Z,1.00
2018-08-07T08:46:51.552Z,1.00
2018-08-07T08:48:53.652Z,1.00
2018-08-07T08:50:55.837Z,1.00
2018-08-07T08:52:57.874Z,1.00
2018-08-07T08:55:00.009Z,1.00
2018-08-07T08:57:02.118Z,1.00
2018-08-07T08:59:04.574Z,1.00
2018-08-07T09:01:06.685Z,1.00
2018-08-07T09:03:08.790Z,1.00
2018-08-07T09:05:11.477Z,1.00
2018-08-07T09:07:13.682Z,1.00
2018-08-07T09:09:15.806Z,1.00
2018-08-07T09:11:17.947Z,1.00
2018-08-07T09:13:19.985Z,1.00
2018-08-07T09:15:22.082Z,1.00
2018-08-07T09:17:24.160Z,1.00
2018-08-07T09:19:26.249Z,1.00
2018-08-07T09:21:28.340Z,1.00
2018-08-07T09:23:30.458Z,1.00
2018-08-07T09:25:32.746Z,1.00
2018-08-07T09:27:34.805Z,1.00
2018-08-07T09:29:36.908Z,1.00
2018-08-07T09:31:39.056Z,1.00
2018-08-07T09:33:41.137Z,1.00
2018-08-07T09:35:43.344Z,1.00
2018-08-07T09:37:45.605Z,1.00
2018-08-07T09:39:47.737Z,1.00
2018-08-07T09:41:49.946Z,1.00
2018-08-07T09:43:52.029Z,1.00
2018-08-07T09:45:54.118Z,1.00
2018-08-07T09:47:56.213Z,1.00
2018-08-07T09:49:58.289Z,1.00
2018-08-07T09:52:00.338Z,1.00
2018-08-07T09:54:02.469Z,1.00
2018-08-07T09:56:04.838Z,1.00
2018-08-07T09:58:07.037Z,1.00
2018-08-07T10:00:13.797Z,1.00
2018-08-07T10:02:21.477Z,1.00
2018-08-07T10:04:23.537Z,1.00
2018-08-07T10:06:25.637Z,1.00
2018-08-07T10:08:27.704Z,1.00
2018-08-07T10:10:29.784Z,1.00
2018-08-07T10:12:31.927Z,1.00
2018-08-07T10:14:33.909Z,1.00
2018-08-07T10:16:36.014Z,1.00
2018-08-07T10:18:38.097Z,1.00
2018-08-07T10:20:40.261Z,1.00
2018-08-07T10:22:42.451Z,1.00
2018-08-07T10:24:44.577Z,1.00
2018-08-07T10:26:46.705Z,1.00
2018-08-07T10:28:48.849Z,1.00
2018-08-07T10:30:50.923Z,1.00
2018-08-07T10:32:53.521Z,1.00
2018-08-07T10:34:55.610Z,1.00
2018-08-07T10:36:57.640Z,1.00
2018-08-07T10:38:59.726Z,1.00
2018-08-07T10:41:01.880Z,1.00
2018-08-07T10:43:03.990Z,1.00
2018-08-07T10:45:08.362Z,1.00
2018-08-07T10:47:10.420Z,1.00
2018-08-07T10:49:12.525Z,1.00
2018-08-07T10:51:14.686Z,1.00
2018-08-07T10:53:16.807Z,1.00
2018-08-07T10:55:19.794Z,1.00
2018-08-07T10:57:21.847Z,1.00
2018-08-07T10:59:24.317Z,1.00
2018-08-07T11:01:26.349Z,1.00
2018-08-07T11:03:28.401Z,1.00
2018-08-07T11:05:30.805Z,1.00
2018-08-07T11:07:32.851Z,1.00
2018-08-07T11:09:34.969Z,1.00
2018-08-07T11:11:37.009Z,1.00
2018-08-07T11:13:39.092Z,1.00
2018-08-07T11:15:41.163Z,1.00
2018-08-07T11:17:43.266Z,1.00
2018-08-07T11:19:45.358Z,1.00
2018-08-07T11:21:47.403Z,1.00
2018-08-07T11:23:49.453Z,1.00
2018-08-07T11:25:51.532Z,1.00
2018-08-07T11:27:53.606Z,1.00
2018-08-07T11:29:55.731Z,1.00
2018-08-07T11:31:57.922Z,1.00
2018-08-07T11:34:00.050Z,1.00
2018-08-07T11:36:02.279Z,1.00
2018-08-07T11:38:04.323Z,1.00
2018-08-07T11:40:08.782Z,1.00
2018-08-07T11:42:10.902Z,1.00
2018-08-07T11:44:12.964Z,1.00
2018-08-07T11:46:15.036Z,1.00
2018-08-07T11:48:17.203Z,1.00
2018-08-07T11:50:20.896Z,1.00
2018-08-07T11:52:23.001Z,1.00
2018-08-07T11:54:25.083Z,1.00
2018-08-07T11:56:27.213Z,1.00
2018-08-07T11:58:29.288Z,1.00
2018-08-07T12:00:33.126Z,1.00
2018-08-07T12:02:35.268Z,1.00
2018-08-07T12:04:37.326Z,1.00
2018-08-07T12:06:39.369Z,1.00
2018-08-07T12:08:41.444Z,1.00
2018-08-07T12:10:43.482Z,1.00
2018-08-07T12:12:45.756Z,1.00
2018-08-07T12:14:47.820Z,1.00
2018-08-07T12:16:49.997Z,1.00
2018-08-07T12:18:52.178Z,1.00
2018-08-07T12:20:54.322Z,1.00
2018-08-07T12:22:56.424Z,1.00
2018-08-07T12:24:58.592Z,1.00
2018-08-07T12:27:00.703Z,1.00
2018-08-07T12:29:02.808Z,1.00
2018-08-07T12:31:04.895Z,1.00
2018-08-07T12:33:06.988Z,1.00
2018-08-07T12:35:09.244Z,1.00
2018-08-07T12:37:11.305Z,1.00
2018-08-07T12:39:13.382Z,1.00
2018-08-07T12:43:17.615Z,1.00
2018-08-07T12:45:19.721Z,1.00
2018-08-07T12:47:21.792Z,1.00
2018-08-07T12:49:23.855Z,1.00
2018-08-07T12:51:25.964Z,1.00
2018-08-07T12:53:28.122Z,1.00
2018-08-07T12:55:30.197Z,1.00
2018-08-07T12:57:32.293Z,1.00
2018-08-07T12:59:34.352Z,1.00
2018-08-07T13:01:36.453Z,1.00
2018-08-07T13:03:39.753Z,1.00
2018-08-07T13:05:41.809Z,1.00
2018-08-07T13:07:44.032Z,1.00
2018-08-07T13:09:46.176Z,1.00
2018-08-07T13:11:48.276Z,1.00
2018-08-07T13:13:50.361Z,1.00
2018-08-07T13:15:52.588Z,1.00
2018-08-07T13:17:54.720Z,1.00
2018-08-07T13:19:56.809Z,1.00
2018-08-07T13:21:58.933Z,1.00
2018-08-07T13:26:03.747Z,1.00
2018-08-07T13:28:05.868Z,1.00
2018-08-07T13:30:11.550Z,1.00
2018-08-07T13:32:13.841Z,1.00
2018-08-07T13:34:15.952Z,1.00
2018-08-07T13:36:18.111Z,1.00
2018-08-07T13:38:20.229Z,1.00
2018-08-07T13:40:23.673Z,1.00
2018-08-07T13:42:25.926Z,1.00
2018-08-07T13:44:28.044Z,1.00
2018-08-07T13:46:30.108Z,1.00
2018-08-07T13:48:32.276Z,1.00
2018-08-07T13:50:34.346Z,1.00
2018-08-07T13:52:36.450Z,1.00
2018-08-07T13:54:38.551Z,1.00
2018-08-07T13:56:40.648Z,1.00
2018-08-07T13:58:42.704Z,1.00
2018-08-07T14:00:44.767Z,1.00
2018-08-07T14:02:47.501Z,1.00
2018-08-07T14:04:49.594Z,1.00
2018-08-07T14:06:51.800Z,1.00
2018-08-07T14:08:53.982Z,1.00
2018-08-07T14:10:56.036Z,1.00
2018-08-07T14:12:58.145Z,1.00
2018-08-07T14:15:00.233Z,1.00
2018-08-07T14:17:02.277Z,1.00
2018-08-07T14:19:04.730Z,1.00
2018-08-07T14:21:07.181Z,1.00
2018-08-07T14:23:09.407Z,1.00
2018-08-07T14:25:14.632Z,1.00
2018-08-07T14:27:16.777Z,1.00
2018-08-07T14:29:18.821Z,1.00
2018-08-07T14:31:21.125Z,1.00
2018-08-07T14:33:23.300Z,1.00
2018-08-07T14:35:25.421Z,1.00
2018-08-07T14:37:27.533Z,1.00
2018-08-07T14:39:29.599Z,1.00
2018-08-07T14:41:31.683Z,1.00
2018-08-07T14:43:33.777Z,1.00
2018-08-07T14:45:35.933Z,1.00
2018-08-07T14:47:38.169Z,1.00
2018-08-07T14:49:40.852Z,1.00
2018-08-07T14:51:43.110Z,1.00
2018-08-07T14:53:45.296Z,1.00
2018-08-07T14:55:47.380Z,1.00
2018-08-07T14:57:49.558Z,1.00
2018-08-07T14:59:51.771Z,1.00
2018-08-07T15:01:54.009Z,1.00
2018-08-07T15:03:56.534Z,1.00
2018-08-07T15:05:58.705Z,1.00
2018-08-07T15:08:00.906Z,1.00
2018-08-07T15:10:04.174Z,1.00
2018-08-07T15:12:06.504Z,1.00
2018-08-07T15:14:09.499Z,1.00
2018-08-07T15:21:07.434Z,1.00
2018-08-07T15:23:09.538Z,1.00
2018-08-07T16:18:25.846Z,1.00
2018-08-07T16:20:27.856Z,1.00
2018-08-07T16:22:29.926Z,1.00
2018-08-07T16:24:31.916Z,1.00
2018-08-07T16:26:33.932Z,1.00
2018-08-07T16:28:35.944Z,1.00
2018-08-07T16:30:38.009Z,1.00
2018-08-07T16:32:40.081Z,1.00
2018-08-07T16:34:42.085Z,1.00
2018-08-07T16:36:44.153Z,1.00
2018-08-07T16:38:46.160Z,1.00
2018-08-07T16:40:48.282Z,1.00
2018-08-07T16:42:51.366Z,1.00
2018-08-07T16:44:53.368Z,1.00
2018-08-07T16:46:55.408Z,1.00
2018-08-07T16:48:57.441Z,1.00
2018-08-07T16:50:59.469Z,1.00
2018-08-07T16:53:01.488Z,1.00
2018-08-07T16:55:04.013Z,1.00
2018-08-07T16:57:06.103Z,1.00
2018-08-07T16:59:08.085Z,1.00
2018-08-07T17:01:10.165Z,1.00
2018-08-07T17:03:12.197Z,1.00
2018-08-07T17:05:15.343Z,1.00
2018-08-07T17:07:17.366Z,1.00
2018-08-07T17:09:19.396Z,1.00
2018-08-07T17:11:21.758Z,1.00
2018-08-07T17:13:23.765Z,1.00
2018-08-07T17:15:25.797Z,1.00
2018-08-07T17:17:27.812Z,1.00
2018-08-07T17:19:29.828Z,1.00
2018-08-07T17:21:31.844Z,1.00
2018-08-07T17:23:33.857Z,1.00
2018-08-07T17:25:35.868Z,1.00
2018-08-07T17:27:38.037Z,1.00
2018-08-07T17:29:40.073Z,1.00
2018-08-07T17:31:42.104Z,1.00
2018-08-07T17:33:44.129Z,1.00
2018-08-07T17:35:46.152Z,1.00
2018-08-07T17:37:49.689Z,1.00
2018-08-07T17:39:51.823Z,1.00
2018-08-07T17:41:53.937Z,1.00
2018-08-07T17:43:56.101Z,1.00
2018-08-07T17:45:58.277Z,1.00
2018-08-07T17:48:00.389Z,1.00
2018-08-07T17:50:03.096Z,1.00
2018-08-07T17:52:05.973Z,1.00
2018-08-07T17:54:08.036Z,1.00
2018-08-07T17:56:10.114Z,1.00
2018-08-07T17:58:12.172Z,1.00
2018-08-07T18:00:19.105Z,1.00
2018-08-07T18:02:21.325Z,1.00
2018-08-07T18:04:23.376Z,1.00
2018-08-07T18:06:25.493Z,1.00
2018-08-07T18:08:27.498Z,1.00
2018-08-07T18:10:29.600Z,1.00
2018-08-07T18:12:31.658Z,1.00
2018-08-07T18:14:33.701Z,1.00
2018-08-07T18:16:35.777Z,1.00
2018-08-07T18:18:37.892Z,1.00
2018-08-07T18:20:39.928Z,1.00
2018-08-07T18:22:41.973Z,1.00
2018-08-07T18:24:44.013Z,1.00
2018-08-07T18:26:46.041Z,1.00
2018-08-07T18:28:48.109Z,1.00
2018-08-07T18:30:50.166Z,1.00
2018-08-07T18:32:52.272Z,1.00
2018-08-07T18:34:54.349Z,1.00
2018-08-07T18:36:56.404Z,1.00
2018-08-07T18:38:58.539Z,1.00
2018-08-07T18:41:00.552Z,1.00
2018-08-07T18:43:02.653Z,1.00
2018-08-07T18:45:06.388Z,1.00
2018-08-07T18:47:08.437Z,1.00
2018-08-07T18:49:10.473Z,1.00
2018-08-07T18:51:12.911Z,1.00
2018-08-07T18:53:14.923Z,1.00
2018-08-07T18:55:16.964Z,1.00
2018-08-07T18:57:19.127Z,1.00
2018-08-07T18:59:21.160Z,1.00
2018-08-07T19:01:23.192Z,1.00
2018-08-07T19:03:25.237Z,1.00
2018-08-07T19:05:27.297Z,1.00
2018-08-07T19:07:29.381Z,1.00
2018-08-07T19:09:31.435Z,1.00
2018-08-07T19:11:33.457Z,1.00
2018-08-07T19:13:35.518Z,1.00
2018-08-07T19:15:37.541Z,1.00
2018-08-07T19:17:39.616Z,1.00
2018-08-07T19:19:41.652Z,1.00
2018-08-07T19:21:46.945Z,1.00
2018-08-07T19:23:48.980Z,1.00
2018-08-07T19:25:51.026Z,1.00
2018-08-07T19:27:53.053Z,1.00
2018-08-07T19:29:55.076Z,1.00
2018-08-07T19:31:57.121Z,1.00
2018-08-07T19:33:59.154Z,1.00
2018-08-07T19:36:01.152Z,1.00
2018-08-07T19:38:03.172Z,1.00
2018-08-07T19:40:07.084Z,1.00
2018-08-07T19:42:09.142Z,1.00
2018-08-07T19:44:11.217Z,1.00
2018-08-07T19:46:13.198Z,1.00
2018-08-07T19:48:15.244Z,1.00
2018-08-07T19:50:18.949Z,1.00
2018-08-07T19:52:20.997Z,1.00
2018-08-07T19:54:23.072Z,1.00
2018-08-07T19:56:25.109Z,1.00
2018-08-07T19:58:27.170Z,1.00
2018-08-07T20:00:29.241Z,1.00
2018-08-07T20:02:31.256Z,1.00
2018-08-07T20:04:33.316Z,1.00
2018-08-07T20:06:35.357Z,1.00
2018-08-07T20:08:37.384Z,1.00
2018-08-07T20:10:39.489Z,1.00
2018-08-07T20:12:41.804Z,1.00
2018-08-07T20:14:43.824Z,1.00
2018-08-07T20:16:45.841Z,1.00
2018-08-07T20:18:47.890Z,1.00
2018-08-07T20:20:49.917Z,1.00
2018-08-07T20:22:52.245Z,1.00
2018-08-07T20:24:54.285Z,1.00
2018-08-07T20:26:59.972Z,1.00
2018-08-07T20:29:02.005Z,1.00
2018-08-07T20:31:04.080Z,1.00
2018-08-07T20:33:06.085Z,1.00
2018-08-07T20:35:08.364Z,1.00
2018-08-07T20:37:10.400Z,1.00
2018-08-07T20:39:12.441Z,1.00
2018-08-07T20:41:14.465Z,1.00
2018-08-07T20:43:16.509Z,1.00
2018-08-07T20:45:19.127Z,1.00
2018-08-07T20:47:21.169Z,1.00
2018-08-07T20:49:23.184Z,1.00
2018-08-07T20:51:25.597Z,1.00
2018-08-07T20:53:27.652Z,1.00
2018-08-07T20:55:29.690Z,1.00
2018-08-07T20:57:31.724Z,1.00
2018-08-07T20:59:33.744Z,1.00
2018-08-07T21:01:35.771Z,1.00
2018-08-07T21:03:37.849Z,1.00
2018-08-07T21:05:39.918Z,1.00
2018-08-07T21:07:41.966Z,1.00
2018-08-07T21:09:44.029Z,1.00
2018-08-07T21:11:46.366Z,1.00
2018-08-07T21:13:48.408Z,1.00
2018-08-07T21:15:50.448Z,1.00
2018-08-07T21:17:52.527Z,1.00
2018-08-07T21:19:54.564Z,1.00
2018-08-07T21:21:56.613Z,1.00
2018-08-07T21:23:58.645Z,1.00
2018-08-07T21:26:00.730Z,1.00
2018-08-07T21:28:02.777Z,1.50
2018-08-07T21:30:07.448Z,2.80
2018-08-07T21:32:09.469Z,3.00
2018-08-07T21:34:11.500Z,4.30
2018-08-07T21:36:13.564Z,2.20
2018-08-07T21:38:15.576Z,3.80
2018-08-07T21:40:18.786Z,4.60
2018-08-07T21:42:20.810Z,3.60
2018-08-07T21:44:22.848Z,2.30
2018-08-07T21:46:24.875Z,4.70
2018-08-07T21:48:26.962Z,4.40
2018-08-07T21:50:29.008Z,7.60
2018-08-07T21:52:31.033Z,4.70
2018-08-07T21:54:33.084Z,4.90
2018-08-07T21:56:35.113Z,7.40
2018-08-07T21:58:37.163Z,7.80
2018-08-07T22:00:45.216Z,5.00
2018-08-07T22:02:47.973Z,7.40
2018-08-07T22:04:50.015Z,7.20
2018-08-07T22:06:52.058Z,4.50
2018-08-07T22:08:54.117Z,4.60
2018-08-07T22:10:56.151Z,3.70
2018-08-07T22:12:58.192Z,6.00
2018-08-07T22:15:00.237Z,4.50
2018-08-07T23:41:23.546Z,6.80
2018-08-07T23:43:25.607Z,6.80
2018-08-07T23:45:27.869Z,6.80
